createdAt,value
2023-05-22T00:01:22.690Z,25.40
2023-05-22T00:06:26.082Z,26.70
2023-05-22T00:11:28.973Z,29.25
2023-05-22T00:16:33.159Z,30.38
2023-05-22T00:21:37.597Z,30.15
2023-05-22T00:26:40.515Z,31.02
2023-05-22T00:31:44.748Z,34.50
2023-05-22T00:36:47.584Z,29.73
2023-05-22T00:41:50.662Z,29.63
2023-05-22T00:46:54.988Z,30.95
2023-05-22T00:51:58.258Z,30.65
2023-05-22T00:57:02.003Z,29.42
2023-05-22T01:02:06.835Z,29.58
2023-05-22T01:07:09.882Z,36.13
2023-05-22T01:12:24.372Z,30.02
2023-05-22T01:17:40.682Z,31.13
2023-05-22T01:23:16.228Z,33.92
2023-05-22T01:28:37.600Z,32.53
2023-05-22T01:33:46.522Z,36.10
2023-05-22T01:38:49.899Z,36.08
2023-05-22T01:43:53.080Z,32.17
2023-05-22T01:48:57.485Z,37.80
2023-05-22T01:54:06.330Z,36.78
2023-05-22T01:59:15.414Z,35.95
2023-05-22T02:04:21.388Z,35.17
2023-05-22T02:09:28.632Z,34.30
2023-05-22T02:14:31.664Z,36.00
2023-05-22T02:19:36.875Z,34.20
2023-05-22T02:24:41.561Z,31.33
2023-05-22T02:29:45.311Z,29.60
2023-05-22T02:34:49.436Z,31.77
2023-05-22T02:39:52.249Z,29.88
2023-05-22T02:44:55.134Z,28.38
2023-05-22T02:49:59.345Z,30.67
2023-05-22T02:55:02.292Z,27.98
2023-05-22T03:00:06.914Z,29.63
2023-05-22T03:05:11.532Z,28.23
2023-05-22T03:10:14.352Z,33.25
2023-05-22T03:15:17.399Z,29.98
2023-05-22T03:20:22.281Z,29.52
2023-05-22T03:25:25.183Z,27.65
2023-05-22T03:30:28.123Z,26.25
2023-05-22T03:35:46.696Z,30.83
2023-05-22T03:40:49.653Z,26.42
2023-05-22T03:45:52.576Z,28.55
2023-05-22T03:50:56.897Z,27.40
2023-05-22T03:55:59.744Z,29.35
2023-05-22T04:01:02.699Z,32.35
2023-05-22T04:06:07.572Z,28.42
2023-05-22T04:11:10.530Z,26.05
2023-05-22T04:16:13.549Z,27.70
2023-05-22T04:21:19.029Z,29.23
2023-05-22T04:26:21.982Z,29.13
2023-05-22T04:31:25.862Z,27.52
2023-05-22T04:36:31.151Z,28.60
2023-05-22T04:41:34.271Z,23.02
2023-05-22T04:46:37.299Z,26.23
2023-05-22T04:51:41.806Z,25.08
2023-05-22T04:56:44.729Z,25.33
2023-05-22T05:01:47.910Z,25.25
2023-05-22T05:06:52.830Z,19.88
2023-05-22T05:11:55.707Z,21.83
2023-05-22T05:16:58.692Z,24.15
2023-05-22T05:22:03.246Z,22.40
2023-05-22T05:27:07.086Z,22.30
2023-05-22T05:32:12.988Z,21.40
2023-05-22T05:37:27.810Z,20.52
2023-05-22T05:42:34.630Z,19.30
2023-05-22T05:47:40.626Z,21.90
2023-05-22T05:52:45.396Z,18.65
2023-05-22T05:57:52.373Z,21.52
2023-05-22T06:03:02.070Z,18.50
2023-05-22T06:08:28.444Z,18.25
2023-05-22T06:13:31.535Z,17.02
2023-05-22T06:18:34.613Z,15.85
2023-05-22T06:23:39.013Z,17.27
2023-05-22T06:28:43.642Z,15.00
2023-05-22T06:33:47.414Z,21.83
2023-05-22T06:38:55.485Z,18.48
2023-05-22T06:44:18.316Z,19.85
2023-05-22T06:49:21.177Z,16.85
2023-05-22T06:54:29.593Z,23.73
2023-05-22T06:59:33.671Z,19.90
2023-05-22T07:04:42.104Z,20.63
2023-05-22T07:09:50.986Z,24.60
2023-05-22T07:14:54.237Z,19.83
2023-05-22T07:19:59.483Z,21.48
2023-05-22T07:25:05.103Z,23.75
2023-05-22T07:30:10.661Z,19.00
2023-05-22T07:35:15.474Z,18.60
2023-05-22T07:40:19.776Z,18.45
2023-05-22T07:45:22.910Z,19.63
2023-05-22T07:50:27.046Z,22.42
2023-05-22T07:55:31.494Z,20.65
2023-05-22T08:00:34.611Z,19.70
2023-05-22T08:05:37.492Z,16.67
2023-05-22T08:10:58.249Z,16.55
2023-05-22T08:16:04.835Z,19.10
2023-05-22T08:21:07.746Z,17.98
2023-05-22T08:26:11.985Z,16.90
2023-05-22T08:31:15.599Z,15.38
2023-05-22T08:36:18.507Z,14.20
2023-05-22T08:41:22.793Z,16.45
2023-05-22T08:46:29.021Z,15.25
2023-05-22T08:51:35.728Z,14.98
2023-05-22T08:56:53.051Z,13.98
2023-05-22T09:01:59.986Z,14.30
2023-05-22T09:07:05.959Z,22.65
2023-05-22T09:12:11.725Z,14.48
2023-05-22T09:17:17.169Z,13.15
2023-05-22T09:22:21.767Z,13.00
2023-05-22T09:27:27.185Z,14.23
2023-05-22T09:32:31.399Z,12.57
2023-05-22T09:37:35.838Z,16.15
2023-05-22T09:42:40.042Z,13.68
2023-05-22T09:47:43.188Z,12.93
2023-05-22T09:52:47.182Z,13.35
2023-05-22T09:57:53.484Z,13.68
2023-05-22T10:03:04.050Z,13.15
2023-05-22T10:08:11.939Z,12.65
2023-05-22T10:13:17.218Z,12.40
2023-05-22T10:18:20.028Z,18.27
2023-05-22T10:23:23.510Z,14.20
2023-05-22T10:28:36.292Z,13.50
2023-05-22T10:33:45.059Z,14.65
2023-05-22T10:39:05.310Z,11.98
2023-05-22T10:44:09.790Z,12.43
2023-05-22T10:49:22.410Z,14.25
2023-05-22T10:54:40.805Z,13.18
2023-05-22T10:59:45.280Z,13.45
2023-05-22T11:04:48.345Z,15.82
2023-05-22T11:10:00.920Z,13.45
2023-05-22T11:15:07.386Z,12.82
2023-05-22T11:20:15.950Z,12.80
2023-05-22T11:25:21.361Z,13.65
2023-05-22T11:30:28.420Z,12.93
2023-05-22T11:35:31.416Z,20.13
2023-05-22T11:40:34.185Z,13.43
2023-05-22T11:45:40.928Z,14.07
2023-05-22T11:50:44.810Z,13.57
2023-05-22T11:55:49.499Z,12.18
2023-05-22T12:00:53.795Z,13.15
2023-05-22T12:05:57.026Z,12.90
2023-05-22T12:10:59.980Z,14.60
2023-05-22T12:16:19.677Z,13.93
2023-05-22T12:21:23.019Z,15.35
2023-05-22T12:26:25.797Z,17.30
2023-05-22T12:31:35.788Z,13.80
2023-05-22T12:36:40.789Z,13.73
2023-05-22T12:41:44.362Z,18.17
2023-05-22T12:46:48.658Z,17.77
2023-05-22T12:51:51.450Z,15.50
2023-05-22T12:56:54.263Z,15.82
2023-05-22T13:02:02.155Z,15.10
2023-05-22T13:07:05.192Z,16.13
2023-05-22T13:12:10.217Z,15.48
2023-05-22T13:17:14.422Z,17.65
2023-05-22T13:22:17.312Z,16.27
2023-05-22T13:27:20.422Z,18.35
2023-05-22T13:32:24.654Z,17.70
2023-05-22T13:37:27.517Z,16.02
2023-05-22T13:42:30.403Z,18.63
2023-05-22T13:47:35.043Z,16.85
2023-05-22T13:52:37.997Z,16.10
2023-05-22T13:57:41.384Z,15.70
2023-05-22T14:02:46.474Z,18.33
2023-05-22T14:07:50.221Z,18.02
2023-05-22T14:12:54.480Z,18.42
2023-05-22T14:17:58.768Z,9.40
2023-05-22T14:23:01.676Z,9.13
2023-05-22T14:28:04.474Z,8.60
2023-05-22T14:33:08.684Z,10.95
2023-05-22T14:38:11.618Z,18.52
2023-05-22T14:43:14.507Z,16.80
2023-05-22T14:48:18.700Z,11.50
2023-05-22T14:53:21.738Z,9.75
2023-05-22T14:58:24.741Z,10.38
2023-05-22T15:03:29.202Z,8.57
2023-05-22T15:08:32.126Z,7.95
2023-05-22T15:13:35.008Z,9.45
2023-05-22T15:18:39.178Z,11.32
2023-05-22T15:23:43.222Z,13.18
2023-05-22T15:28:45.988Z,8.02
2023-05-22T15:33:50.457Z,8.32
2023-05-22T15:38:53.302Z,8.95
2023-05-22T15:43:56.153Z,8.90
2023-05-22T15:49:00.463Z,10.85
2023-05-22T15:54:03.290Z,18.95
2023-05-22T15:59:06.123Z,14.43
2023-05-22T16:04:10.359Z,22.70
2023-05-22T16:09:16.070Z,20.75
2023-05-22T16:14:18.948Z,23.42
2023-05-22T16:19:23.512Z,21.52
2023-05-22T16:24:26.578Z,23.92
2023-05-22T16:29:30.381Z,36.40
2023-05-22T16:34:34.840Z,31.33
2023-05-22T16:39:39.806Z,31.00
2023-05-22T16:44:42.931Z,58.70
2023-05-22T16:49:47.097Z,87.97
2023-05-22T16:54:49.907Z,35.47
2023-05-22T16:59:52.795Z,40.65
2023-05-22T17:04:58.168Z,40.05
2023-05-22T17:10:02.278Z,42.90
2023-05-22T17:15:05.935Z,33.40
2023-05-22T17:20:11.680Z,28.35
2023-05-22T17:25:14.461Z,29.63
2023-05-22T17:30:17.279Z,30.55
2023-05-22T17:35:21.540Z,29.60
2023-05-22T17:40:29.539Z,33.80
2023-05-22T17:45:44.624Z,34.50
2023-05-22T17:50:49.650Z,37.55
2023-05-22T17:55:53.254Z,36.70
2023-05-22T18:00:56.588Z,38.97
2023-05-22T18:06:00.796Z,37.17
2023-05-22T18:11:05.065Z,45.45
2023-05-22T18:16:08.134Z,39.00
2023-05-22T18:21:12.381Z,43.15
2023-05-22T18:26:15.187Z,39.83
2023-05-22T18:31:18.020Z,26.42
2023-05-22T18:36:22.668Z,31.23
2023-05-22T18:41:26.217Z,21.08
2023-05-22T18:46:29.144Z,17.13
2023-05-22T18:51:33.367Z,18.58
2023-05-22T18:56:36.710Z,11.63
2023-05-22T19:01:40.450Z,13.32
2023-05-22T19:06:45.890Z,13.10
2023-05-22T19:11:48.819Z,20.48
2023-05-22T19:16:51.753Z,16.17
2023-05-22T19:21:56.197Z,23.73
2023-05-22T19:26:59.110Z,18.45
2023-05-22T19:32:02.093Z,15.50
2023-05-22T19:37:06.517Z,16.67
2023-05-22T19:42:10.687Z,18.00
2023-05-22T19:47:13.536Z,17.23
2023-05-22T19:52:17.755Z,21.88
2023-05-22T19:57:20.785Z,20.58
2023-05-22T20:02:23.689Z,24.92
2023-05-22T20:07:27.842Z,27.70
2023-05-22T20:12:30.657Z,23.40
2023-05-22T20:17:33.820Z,27.35
2023-05-22T20:22:38.385Z,29.10
2023-05-22T20:27:41.361Z,26.73
2023-05-22T20:32:46.370Z,27.15
2023-05-22T20:37:53.317Z,27.05
2023-05-22T20:42:57.022Z,23.90
2023-05-22T20:48:00.434Z,24.02
2023-05-22T20:53:06.313Z,24.90
2023-05-22T20:58:09.271Z,23.92
2023-05-22T21:03:12.314Z,21.17
2023-05-22T21:08:16.552Z,23.50
2023-05-22T21:13:20.038Z,28.73
2023-05-22T21:18:23.084Z,25.77
2023-05-22T21:23:27.308Z,27.27
2023-05-22T21:28:30.425Z,25.55
2023-05-22T21:33:33.346Z,26.45
2023-05-22T21:38:37.553Z,31.92
2023-05-22T21:43:40.695Z,41.33
2023-05-22T21:48:43.400Z,57.08
2023-05-22T21:53:47.889Z,54.70
2023-05-22T21:58:50.625Z,67.72
2023-05-22T22:03:53.464Z,68.05
2023-05-22T22:08:59.680Z,67.10
2023-05-22T22:14:02.438Z,70.50
2023-05-22T22:19:05.411Z,64.07
2023-05-22T22:24:09.713Z,59.60
2023-05-22T22:29:12.783Z,53.53
2023-05-22T22:34:15.678Z,57.22
2023-05-22T22:39:19.899Z,54.33
2023-05-22T22:44:22.669Z,52.03
2023-05-22T22:49:25.568Z,52.22
2023-05-22T22:54:29.741Z,51.88
2023-05-22T22:59:33.645Z,56.50
2023-05-22T23:04:36.592Z,65.15
2023-05-22T23:09:40.980Z,56.38
2023-05-22T23:14:44.874Z,51.17
2023-05-22T23:19:47.845Z,59.67
2023-05-22T23:24:52.015Z,50.80
2023-05-22T23:29:54.790Z,44.03
2023-05-22T23:34:57.598Z,45.05
2023-05-22T23:40:01.946Z,49.22
2023-05-22T23:45:05.235Z,45.17
2023-05-22T23:50:08.917Z,45.28
2023-05-22T23:55:13.169Z,48.25
